createdAt,value
2018-08-09T00:00:52.390Z,2.90
2018-08-09T00:03:20.995Z,3.40
2018-08-09T00:05:49.295Z,2.93
2018-08-09T00:08:17.877Z,3.17
2018-08-09T00:10:46.154Z,3.20
2018-08-09T00:13:14.494Z,3.08
2018-08-09T00:15:42.742Z,3.03
2018-08-09T00:18:11.016Z,3.10
2018-08-09T00:20:39.285Z,3.27
2018-08-09T00:23:07.654Z,3.13
2018-08-09T00:25:35.943Z,3.37
2018-08-09T00:28:04.479Z,4.10
2018-08-09T00:30:33.596Z,3.63
2018-08-09T00:33:01.855Z,3.30
2018-08-09T00:35:30.264Z,3.60
2018-08-09T00:37:58.535Z,3.20
2018-08-09T00:40:26.824Z,3.40
2018-08-09T00:42:55.123Z,3.37
2018-08-09T00:45:23.361Z,3.80
2018-08-09T00:47:51.630Z,3.37
2018-08-09T00:50:19.978Z,3.60
2018-08-09T00:52:48.228Z,3.80
2018-08-09T00:55:16.500Z,3.77
2018-08-09T00:57:44.789Z,3.33
2018-08-09T01:00:13.079Z,3.67
2018-08-09T01:02:41.391Z,3.63
2018-08-09T01:05:09.849Z,3.77
2018-08-09T01:07:38.105Z,3.37
2018-08-09T01:10:06.430Z,3.57
2018-08-09T01:12:34.707Z,3.80
2018-08-09T01:15:02.980Z,3.77
2018-08-09T01:17:31.226Z,3.93
2018-08-09T01:19:59.677Z,3.47
2018-08-09T01:22:28.559Z,4.50
2018-08-09T01:24:56.891Z,3.93
2018-08-09T01:27:25.206Z,3.67
2018-08-09T01:29:53.456Z,3.50
2018-08-09T01:32:21.743Z,3.60
2018-08-09T01:45:33.052Z,4.27
2018-08-09T01:48:01.350Z,4.07
2018-08-09T01:50:29.627Z,3.87
2018-08-09T01:52:57.995Z,4.60
2018-08-09T01:55:26.277Z,4.30
2018-08-09T01:57:54.554Z,4.40
2018-08-09T02:00:22.924Z,4.33
2018-08-09T02:02:51.187Z,4.50
2018-08-09T02:05:19.468Z,4.67
2018-08-09T02:07:47.782Z,4.47
2018-08-09T02:10:16.067Z,4.03
2018-08-09T02:12:44.344Z,4.60
2018-08-09T02:15:12.623Z,4.70
2018-08-09T02:17:40.898Z,4.43
2018-08-09T02:20:09.187Z,4.37
2018-08-09T02:22:37.498Z,4.93
2018-08-09T02:25:05.823Z,4.53
2018-08-09T02:27:34.093Z,4.07
2018-08-09T02:30:02.364Z,4.60
2018-08-09T02:32:30.648Z,5.37
2018-08-09T02:34:58.933Z,5.10
2018-08-09T02:37:27.225Z,5.13
2018-08-09T02:39:55.516Z,5.13
2018-08-09T02:42:23.864Z,4.80
2018-08-09T02:44:52.141Z,4.80
2018-08-09T02:47:20.419Z,4.67
2018-08-09T02:49:48.745Z,4.70
2018-08-09T02:52:17.106Z,4.90
2018-08-09T02:54:45.380Z,4.80
2018-08-09T02:57:13.768Z,5.30
2018-08-09T02:59:42.096Z,5.10
2018-08-09T03:02:10.442Z,4.80
2018-08-09T03:04:38.817Z,4.40
2018-08-09T03:07:07.757Z,4.57
2018-08-09T03:09:36.077Z,4.77
2018-08-09T03:12:04.940Z,4.60
2018-08-09T03:14:33.984Z,4.80
2018-08-09T03:17:02.252Z,5.10
2018-08-09T03:19:30.518Z,5.20
2018-08-09T03:21:58.771Z,4.87
2018-08-09T03:24:27.073Z,4.80
2018-08-09T03:26:55.338Z,5.17
2018-08-09T03:29:23.786Z,5.83
2018-08-09T03:31:52.087Z,5.17
2018-08-09T03:34:20.346Z,5.70
2018-08-09T03:36:48.588Z,5.60
2018-08-09T03:39:16.861Z,5.87
2018-08-09T03:41:45.150Z,6.30
2018-08-09T03:44:13.402Z,5.57
2018-08-09T03:46:41.810Z,6.03
2018-08-09T03:49:10.096Z,6.70
2018-08-09T03:51:38.419Z,6.67
2018-08-09T03:54:07.509Z,6.43
2018-08-09T03:56:35.854Z,6.20
2018-08-09T03:59:04.943Z,5.78
2018-08-09T04:01:33.332Z,6.67
2018-08-09T04:04:01.690Z,5.43
2018-08-09T04:06:30.013Z,5.77
2018-08-09T04:08:58.414Z,6.40
2018-08-09T04:11:26.736Z,5.73
2018-08-09T04:13:55.280Z,6.53
2018-08-09T04:16:23.647Z,6.03
2018-08-09T04:18:52.493Z,6.57
2018-08-09T04:21:20.841Z,6.03
2018-08-09T04:23:49.171Z,6.27
2018-08-09T04:26:17.505Z,6.78
2018-08-09T04:28:45.808Z,6.45
2018-08-09T04:31:14.137Z,6.80
2018-08-09T04:33:42.418Z,6.77
2018-08-09T04:36:10.733Z,6.90
2018-08-09T04:38:39.054Z,7.37
2018-08-09T04:41:07.491Z,7.80
2018-08-09T04:46:18.574Z,8.13
2018-08-09T04:48:46.906Z,8.30
2018-08-09T04:51:15.319Z,8.33
2018-08-09T04:53:43.768Z,9.43
2018-08-09T04:56:12.073Z,8.13
2018-08-09T04:58:40.479Z,8.13
2018-08-09T05:01:09.018Z,8.73
2018-08-09T05:03:37.348Z,8.47
2018-08-09T05:06:05.810Z,8.40
2018-08-09T05:08:34.104Z,8.47
2018-08-09T05:11:02.396Z,9.13
2018-08-09T05:13:30.704Z,9.10
2018-08-09T05:15:59.203Z,10.03
2018-08-09T05:18:27.524Z,9.90
2018-08-09T05:20:55.835Z,8.97
2018-08-09T05:23:24.150Z,11.68
2018-08-09T05:25:52.447Z,10.27
2018-08-09T05:28:21.470Z,9.83
2018-08-09T05:30:49.789Z,10.10
2018-08-09T05:33:18.159Z,10.88
2018-08-09T05:35:46.480Z,11.47
2018-08-09T05:38:14.847Z,10.28
2018-08-09T05:40:43.145Z,11.53
2018-08-09T05:43:11.432Z,10.50
2018-08-09T05:45:39.752Z,10.97
2018-08-09T05:48:08.088Z,12.10
2018-08-09T05:50:36.390Z,11.07
2018-08-09T05:53:04.820Z,11.50
2018-08-09T05:55:33.789Z,12.07
2018-08-09T05:58:02.147Z,11.67
2018-08-09T06:00:30.475Z,11.77
2018-08-09T06:02:58.915Z,11.53
2018-08-09T06:05:27.672Z,11.63
2018-08-09T06:07:56.024Z,12.73
2018-08-09T06:10:24.299Z,12.43
2018-08-09T06:12:52.611Z,12.63
2018-08-09T06:15:20.953Z,11.07
2018-08-09T06:17:49.274Z,11.93
2018-08-09T06:20:17.577Z,12.27
2018-08-09T06:22:45.960Z,13.00
2018-08-09T06:25:14.396Z,11.70
2018-08-09T06:27:42.675Z,12.77
2018-08-09T06:30:11.673Z,12.87
2018-08-09T06:32:40.397Z,13.10
2018-08-09T06:35:10.091Z,13.15
2018-08-09T06:37:38.810Z,12.73
2018-08-09T06:40:11.423Z,12.63
2018-08-09T06:42:39.946Z,12.57
2018-08-09T06:45:08.294Z,14.00
2018-08-09T06:47:36.642Z,14.70
2018-08-09T06:50:05.861Z,12.90
2018-08-09T06:52:34.183Z,12.83
2018-08-09T06:55:02.553Z,11.60
2018-08-09T06:57:30.869Z,12.83
2018-08-09T06:59:59.269Z,11.90
2018-08-09T07:02:27.615Z,11.63
2018-08-09T07:04:55.924Z,10.77
2018-08-09T07:07:24.972Z,11.13
2018-08-09T07:09:53.815Z,11.17
2018-08-09T07:12:22.235Z,11.03
2018-08-09T07:14:50.607Z,10.53
2018-08-09T07:17:18.980Z,10.47
2018-08-09T07:19:47.276Z,9.83
2018-08-09T07:22:15.724Z,9.48
2018-08-09T07:24:44.084Z,9.07
2018-08-09T07:27:12.484Z,8.18
2018-08-09T07:29:40.804Z,8.70
2018-08-09T07:32:09.098Z,8.07
2018-08-09T07:34:37.411Z,8.70
2018-08-09T07:37:05.727Z,8.93
2018-08-09T07:39:34.133Z,7.60
2018-08-09T07:42:02.464Z,8.57
2018-08-09T07:44:30.738Z,8.13
2018-08-09T07:46:59.130Z,8.27
2018-08-09T07:49:27.512Z,8.00
2018-08-09T07:51:55.869Z,8.53
2018-08-09T07:54:24.328Z,9.67
2018-08-09T07:56:52.722Z,8.40
2018-08-09T07:59:21.295Z,8.60
2018-08-09T08:01:49.698Z,8.10
2018-08-09T08:04:17.990Z,8.30
2018-08-09T08:06:46.328Z,7.27
2018-08-09T08:09:15.386Z,7.83
2018-08-09T08:11:43.728Z,7.33
2018-08-09T08:14:12.074Z,7.47
2018-08-09T08:16:40.937Z,7.20
2018-08-09T08:19:09.290Z,7.83
2018-08-09T08:21:37.705Z,6.33
2018-08-09T08:24:06.327Z,7.60
2018-08-09T08:26:34.698Z,7.67
2018-08-09T08:29:03.006Z,7.63
2018-08-09T08:31:31.324Z,7.27
2018-08-09T08:33:59.649Z,7.43
2018-08-09T08:36:28.049Z,7.90
2018-08-09T08:38:56.326Z,6.60
2018-08-09T08:41:24.636Z,7.67
2018-08-09T08:43:52.951Z,6.90
2018-08-09T08:46:21.297Z,7.07
2018-08-09T08:48:49.642Z,7.80
2018-08-09T08:51:18.102Z,7.80
2018-08-09T08:53:46.574Z,7.50
2018-08-09T08:56:14.879Z,7.80
2018-08-09T08:58:43.220Z,6.90
2018-08-09T09:01:11.571Z,6.60
2018-08-09T09:03:40.825Z,8.20
2018-08-09T09:06:10.748Z,6.77
2018-08-09T09:08:39.175Z,7.40
2018-08-09T09:11:07.550Z,6.80
2018-08-09T09:13:36.037Z,13.77
2018-08-09T09:16:04.778Z,13.03
2018-08-09T09:18:33.116Z,15.17
2018-08-09T09:21:01.467Z,15.23
2018-08-09T09:23:29.841Z,15.20
2018-08-09T09:25:58.228Z,16.97
2018-08-09T09:28:26.583Z,16.73
2018-08-09T09:30:54.921Z,16.57
2018-08-09T09:33:23.308Z,19.13
2018-08-09T09:35:51.687Z,21.23
2018-08-09T09:38:20.036Z,20.00
2018-08-09T09:40:48.535Z,22.03
2018-08-09T09:43:16.942Z,18.57
2018-08-09T09:45:45.364Z,18.47
2018-08-09T09:48:13.652Z,22.52
2018-08-09T09:50:42.009Z,19.33
2018-08-09T09:53:10.369Z,17.80
2018-08-09T09:55:38.661Z,17.17
2018-08-09T09:58:07.055Z,18.23
2018-08-09T10:00:40.604Z,20.57
2018-08-09T10:03:08.912Z,17.25
2018-08-09T10:05:37.261Z,18.50
2018-08-09T10:08:05.698Z,17.33
2018-08-09T10:10:34.195Z,18.00
2018-08-09T10:13:02.689Z,18.13
2018-08-09T10:15:31.102Z,17.87
2018-08-09T10:17:59.415Z,18.10
2018-08-09T10:20:28.385Z,16.90
2018-08-09T10:22:56.817Z,18.10
2018-08-09T10:25:25.163Z,18.33
2018-08-09T10:27:53.582Z,18.93
2018-08-09T10:30:21.979Z,18.30
2018-08-09T10:32:50.430Z,17.53
2018-08-09T10:35:18.744Z,19.17
2018-08-09T10:37:47.066Z,17.43
2018-08-09T10:40:15.422Z,18.97
2018-08-09T10:42:43.825Z,17.20
2018-08-09T10:45:12.251Z,17.87
2018-08-09T10:47:40.572Z,18.10
2018-08-09T10:50:08.982Z,17.67
2018-08-09T10:52:37.385Z,16.13
2018-08-09T10:55:05.854Z,17.20
2018-08-09T10:57:34.228Z,16.10
2018-08-09T11:00:02.624Z,17.37
2018-08-09T11:02:31.001Z,17.43
2018-08-09T11:04:59.409Z,17.37
2018-08-09T11:07:27.825Z,16.50
2018-08-09T11:09:56.217Z,17.83
2018-08-09T11:12:24.540Z,17.10
2018-08-09T11:14:52.963Z,17.57
2018-08-09T11:17:21.400Z,18.20
2018-08-09T11:19:49.750Z,17.60
2018-08-09T11:22:18.069Z,17.02
2018-08-09T11:24:46.429Z,17.63
2018-08-09T11:27:14.754Z,17.87
2018-08-09T11:29:43.129Z,17.80
2018-08-09T11:32:11.478Z,17.57
2018-08-09T11:34:39.810Z,17.63
2018-08-09T11:37:08.116Z,18.30
2018-08-09T11:39:36.449Z,19.20
2018-08-09T11:42:04.793Z,19.20
2018-08-09T11:44:33.679Z,18.87
2018-08-09T11:47:02.068Z,17.87
2018-08-09T11:49:30.718Z,18.93
2018-08-09T11:51:59.052Z,17.90
2018-08-09T11:54:27.404Z,19.07
2018-08-09T11:56:55.878Z,18.60
2018-08-09T11:59:24.244Z,19.63
2018-08-09T12:01:52.633Z,19.10
2018-08-09T12:04:20.898Z,19.83
2018-08-09T12:06:49.204Z,19.40
2018-08-09T12:09:17.680Z,20.10
2018-08-09T12:11:46.114Z,18.33
2018-08-09T12:14:14.452Z,17.83
2018-08-09T12:16:42.879Z,19.80
2018-08-09T12:19:11.221Z,20.20
2018-08-09T12:21:39.665Z,20.37
2018-08-09T12:24:08.003Z,20.40
2018-08-09T12:26:36.316Z,19.00
2018-08-09T12:29:05.442Z,18.92
2018-08-09T12:31:33.787Z,20.80
2018-08-09T12:34:02.145Z,19.77
2018-08-09T12:36:30.676Z,19.70
2018-08-09T12:38:59.001Z,19.90
2018-08-09T12:41:27.322Z,21.90
2018-08-09T12:43:55.776Z,20.27
2018-08-09T12:46:24.092Z,22.23
2018-08-09T12:48:52.569Z,21.20
2018-08-09T12:51:21.013Z,21.63
2018-08-09T12:53:49.391Z,22.73
2018-08-09T12:56:17.992Z,24.20
2018-08-09T12:58:46.335Z,25.60
2018-08-09T13:01:14.699Z,25.37
2018-08-09T13:03:43.074Z,27.10
2018-08-09T13:06:11.350Z,26.27
2018-08-09T13:13:47.428Z,29.90
2018-08-09T13:16:16.027Z,31.37
2018-08-09T13:18:44.476Z,32.73
2018-08-09T13:21:12.844Z,32.33
2018-08-09T13:23:41.196Z,32.13
2018-08-09T13:26:09.571Z,34.07
2018-08-09T13:28:37.887Z,33.97
2018-08-09T13:31:06.528Z,35.93
2018-08-09T13:33:34.900Z,34.17
2018-08-09T13:36:03.407Z,40.60
2018-08-09T13:38:31.768Z,39.87
2018-08-09T13:41:00.141Z,41.63
2018-08-09T13:43:28.512Z,35.37
2018-08-09T13:45:56.849Z,37.63
2018-08-09T13:48:25.199Z,36.23
2018-08-09T13:50:53.523Z,32.77
2018-08-09T13:53:21.957Z,37.50
2018-08-09T13:55:50.276Z,34.67
2018-08-09T13:58:18.659Z,35.33
2018-08-09T14:00:47.008Z,31.93
2018-08-09T14:03:15.323Z,33.90
2018-08-09T14:05:43.781Z,34.03
2018-08-09T14:08:12.171Z,35.33
2018-08-09T14:10:40.531Z,34.60
2018-08-09T14:13:09.060Z,34.00
2018-08-09T14:15:37.420Z,36.13
2018-08-09T14:18:05.803Z,36.17
2018-08-09T14:20:34.108Z,35.40
2018-08-09T14:23:02.480Z,35.03
2018-08-09T14:25:30.857Z,35.90
2018-08-09T14:27:59.219Z,36.03
2018-08-09T14:30:28.285Z,36.77
2018-08-09T14:32:56.766Z,33.63
2018-08-09T14:35:25.055Z,33.63
2018-08-09T14:37:53.404Z,33.17
2018-08-09T14:40:22.360Z,30.80
2018-08-09T14:42:50.718Z,33.77
2018-08-09T14:45:18.995Z,33.77
2018-08-09T14:47:47.318Z,32.83
2018-08-09T14:50:15.673Z,31.73
2018-08-09T14:52:44.067Z,32.43
2018-08-09T14:55:13.267Z,31.73
2018-08-09T14:57:41.955Z,30.00
2018-08-09T15:00:16.720Z,31.20
2018-08-09T15:02:45.617Z,29.70
2018-08-09T15:05:14.305Z,31.60
2018-08-09T15:07:43.075Z,31.53
2018-08-09T15:10:11.606Z,31.03
2018-08-09T15:12:39.918Z,28.60
2018-08-09T15:15:09.790Z,28.80
2018-08-09T15:17:38.176Z,25.47
2018-08-09T15:20:08.438Z,24.60
2018-08-09T15:22:36.819Z,25.60
2018-08-09T15:25:06.184Z,24.73
2018-08-09T15:27:34.695Z,23.50
2018-08-09T15:30:03.013Z,24.00
2018-08-09T15:32:31.368Z,23.73
2018-08-09T15:34:59.736Z,21.07
2018-08-09T15:37:28.105Z,20.50
2018-08-09T15:39:56.450Z,19.13
2018-08-09T15:42:24.782Z,18.53
2018-08-09T15:44:53.089Z,17.43
2018-08-09T15:47:21.512Z,16.15
2018-08-09T15:49:49.865Z,12.67
2018-08-09T15:52:18.197Z,10.50
2018-08-09T15:54:46.549Z,7.37
2018-08-09T15:57:14.860Z,7.78
2018-08-09T15:59:43.404Z,7.53
2018-08-09T16:02:11.765Z,6.70
2018-08-09T16:04:40.137Z,6.97
2018-08-09T16:07:08.514Z,5.90
2018-08-09T16:09:36.895Z,5.87
2018-08-09T16:12:05.267Z,4.70
2018-08-09T16:14:33.628Z,4.57
2018-08-09T16:17:01.947Z,4.83
2018-08-09T16:19:30.256Z,4.50
2018-08-09T16:21:58.714Z,4.77
2018-08-09T16:24:27.100Z,4.10
2018-08-09T16:26:55.466Z,4.40
2018-08-09T16:29:24.095Z,4.27
2018-08-09T16:31:52.459Z,3.90
2018-08-09T16:34:20.804Z,3.83
2018-08-09T16:36:49.384Z,4.70
2018-08-09T16:39:17.790Z,4.20
2018-08-09T16:41:46.260Z,3.47
2018-08-09T16:44:14.787Z,3.60
2018-08-09T16:46:43.197Z,3.77
2018-08-09T16:49:11.551Z,3.50
2018-08-09T16:51:39.932Z,3.97
2018-08-09T16:54:08.234Z,3.90
2018-08-09T16:56:36.643Z,4.10
2018-08-09T16:59:05.074Z,4.03
2018-08-09T17:01:34.782Z,3.63
2018-08-09T17:04:03.201Z,3.60
2018-08-09T17:06:31.600Z,5.63
2018-08-09T17:09:00.165Z,4.60
2018-08-09T17:11:28.516Z,4.10
2018-08-09T17:13:57.542Z,3.97
2018-08-09T17:16:26.164Z,3.77
2018-08-09T17:18:54.614Z,3.85
2018-08-09T17:21:23.418Z,3.00
2018-08-09T17:23:51.781Z,3.30
2018-08-09T17:26:20.336Z,3.47
2018-08-09T17:28:49.586Z,3.73
2018-08-09T17:31:17.966Z,3.58
2018-08-09T17:33:46.352Z,3.97
2018-08-09T17:36:15.131Z,4.30
2018-08-09T17:38:43.568Z,4.20
2018-08-09T17:41:12.020Z,4.87
2018-08-09T17:43:40.550Z,5.00
2018-08-09T17:46:09.773Z,5.37
2018-08-09T17:48:39.366Z,5.40
2018-08-09T17:51:07.837Z,5.67
2018-08-09T17:53:36.152Z,6.30
2018-08-09T17:56:05.426Z,7.12
2018-08-09T17:58:33.910Z,6.97
2018-08-09T18:01:02.790Z,7.73
2018-08-09T18:03:31.216Z,7.77
2018-08-09T18:05:59.916Z,6.70
2018-08-09T18:08:29.015Z,5.60
2018-08-09T18:10:57.559Z,5.90
2018-08-09T18:13:26.223Z,5.27
2018-08-09T18:15:54.884Z,3.70
2018-08-09T18:18:23.445Z,4.87
2018-08-09T18:20:51.914Z,4.43
2018-08-09T18:23:20.492Z,4.75
2018-08-09T18:25:48.880Z,3.87
2018-08-09T18:28:18.298Z,3.70
2018-08-09T18:30:46.996Z,3.87
2018-08-09T18:33:15.369Z,3.77
2018-08-09T18:35:43.781Z,4.20
2018-08-09T18:38:12.157Z,3.70
2018-08-09T18:40:44.871Z,3.83
2018-08-09T18:43:13.554Z,4.03
2018-08-09T18:45:41.954Z,4.30
2018-08-09T18:48:10.258Z,4.10
2018-08-09T18:50:38.668Z,3.77
2018-08-09T18:53:07.150Z,3.60
2018-08-09T18:55:35.511Z,3.67
2018-08-09T19:03:28.965Z,3.37
2018-08-09T19:05:57.402Z,3.67
2018-08-09T19:08:25.788Z,3.57
2018-08-09T19:10:54.163Z,3.80
2018-08-09T19:13:23.262Z,3.77
2018-08-09T19:15:51.757Z,3.90
2018-08-09T19:18:20.167Z,3.83
2018-08-09T19:20:48.487Z,4.00
2018-08-09T19:23:16.862Z,3.83
2018-08-09T19:25:46.167Z,3.60
2018-08-09T19:28:14.466Z,4.23
2018-08-09T19:30:42.786Z,3.60
2018-08-09T19:33:11.265Z,3.52
2018-08-09T19:35:40.384Z,3.07
2018-08-09T19:38:09.211Z,3.43
2018-08-09T19:40:37.765Z,3.00
2018-08-09T19:43:06.015Z,3.10
2018-08-09T19:45:34.404Z,3.60
2018-08-09T19:48:03.057Z,3.30
2018-08-09T19:50:32.198Z,4.03
2018-08-09T19:53:00.622Z,3.57
2018-08-09T19:55:29.047Z,3.80
2018-08-09T19:57:57.549Z,3.37
2018-08-09T20:00:29.405Z,3.30
2018-08-09T20:02:57.778Z,2.50
2018-08-09T20:05:26.107Z,2.52
2018-08-09T20:07:54.594Z,2.30
2018-08-09T20:10:23.176Z,1.90
2018-08-09T20:12:51.525Z,1.80
2018-08-09T20:15:21.990Z,1.77
2018-08-09T20:17:50.392Z,1.80
2018-08-09T20:20:20.424Z,1.63
2018-08-09T20:22:48.752Z,1.87
2018-08-09T20:25:17.133Z,1.73
2018-08-09T20:27:46.067Z,1.63
2018-08-09T20:30:15.958Z,1.80
2018-08-09T20:32:44.786Z,1.60
2018-08-09T20:35:15.270Z,1.60
2018-08-09T20:37:44.494Z,1.77
2018-08-09T20:40:13.271Z,1.70
2018-08-09T20:42:41.928Z,1.73
2018-08-09T20:45:11.828Z,1.80
2018-08-09T20:47:40.134Z,1.60
2018-08-09T20:50:11.319Z,1.83
2018-08-09T20:52:40.291Z,1.60
2018-08-09T20:55:09.196Z,1.53
2018-08-09T20:57:37.947Z,1.67
2018-08-09T21:00:09.750Z,1.53
2018-08-09T21:02:38.884Z,1.70
2018-08-09T21:05:07.192Z,1.60
2018-08-09T21:07:35.519Z,1.70
2018-08-09T21:10:04.778Z,1.63
2018-08-09T21:12:33.123Z,1.50
2018-08-09T21:15:01.509Z,1.50
2018-08-09T21:17:29.802Z,1.43
2018-08-09T21:19:59.144Z,1.37
2018-08-09T21:22:27.416Z,1.43
2018-08-09T21:24:55.733Z,1.40
2018-08-09T21:27:24.087Z,1.37
2018-08-09T21:29:52.367Z,1.50
2018-08-09T21:32:20.663Z,1.42
2018-08-09T21:34:48.982Z,1.20
2018-08-09T21:37:17.271Z,1.50
2018-08-09T21:39:45.564Z,1.20
2018-08-09T21:42:13.936Z,1.00
2018-08-09T21:44:42.230Z,1.30
2018-08-09T21:47:10.544Z,1.00
2018-08-09T21:49:38.858Z,1.10
2018-08-09T21:52:07.277Z,1.20
2018-08-09T21:54:35.615Z,1.10
2018-08-09T21:57:05.062Z,0.90
2018-08-09T21:59:33.419Z,0.57
2018-08-09T22:02:01.885Z,0.70
2018-08-09T22:04:30.246Z,0.60
2018-08-09T22:07:03.742Z,0.70
2018-08-09T22:09:37.408Z,0.70
2018-08-09T22:12:10.962Z,0.50
2018-08-09T22:14:44.596Z,0.53
2018-08-09T22:17:18.290Z,0.50
2018-08-09T22:19:51.763Z,0.50
2018-08-09T22:22:23.297Z,0.53
2018-08-09T22:24:51.664Z,0.70
2018-08-09T22:27:19.924Z,0.80
2018-08-09T22:29:48.170Z,0.70
2018-08-09T22:32:16.433Z,0.80
2018-08-09T22:34:44.753Z,1.10
2018-08-09T22:37:13.207Z,0.73
2018-08-09T22:39:41.515Z,1.00
2018-08-09T22:42:09.853Z,1.13
2018-08-09T22:44:38.146Z,0.90
2018-08-09T22:47:06.523Z,1.03
2018-08-09T22:49:34.892Z,1.13
2018-08-09T22:52:03.208Z,1.30
2018-08-09T22:54:32.279Z,1.27
2018-08-09T22:57:00.562Z,1.20
2018-08-09T22:59:29.394Z,1.30
2018-08-09T23:01:57.720Z,1.40
2018-08-09T23:04:26.599Z,1.20
2018-08-09T23:06:54.928Z,1.30
2018-08-09T23:09:23.369Z,1.57
2018-08-09T23:11:51.723Z,1.50
2018-08-09T23:14:20.008Z,1.40
2018-08-09T23:16:48.343Z,2.10
2018-08-09T23:19:16.677Z,1.63
2018-08-09T23:21:44.969Z,1.80
2018-08-09T23:24:13.273Z,1.97
2018-08-09T23:26:41.604Z,1.80
2018-08-09T23:29:09.886Z,1.70
2018-08-09T23:31:38.459Z,2.33
2018-08-09T23:34:06.862Z,1.73
2018-08-09T23:36:35.175Z,1.97
2018-08-09T23:39:03.797Z,1.90
2018-08-09T23:41:32.063Z,2.17
2018-08-09T23:44:00.386Z,1.57
2018-08-09T23:46:28.714Z,1.60
2018-08-09T23:48:56.998Z,1.80
2018-08-09T23:51:25.418Z,2.10
2018-08-09T23:53:53.773Z,2.30
2018-08-09T23:56:22.085Z,1.93
2018-08-09T23:58:50.376Z,2.17
